Time;durP1;ratioP1;P1;durP2;ratioP2;P2;SDS_P1;SDS_P2;PMS_P1;PMS_P2;Temp;Humidity;BMP_temperature;BMP_pressure;BME280_temperature;BME280_humidity;BME280_pressure;Samples;Min_cycle;Max_cycle;Signal;HPM_P1;HPM_P2
2023/02/16 00:01:48;;;;;;;13.47;8.20;;;8.50;99.90;;;;;;6124800;23;20405;-70
2023/02/16 00:04:19;;;;;;;19.80;9.37;;;8.40;99.90;;;;;;6123704;23;20577;-69
2023/02/16 00:06:46;;;;;;;10.90;7.83;;;8.30;99.90;;;;;;6124428;23;20377;-70
2023/02/16 00:09:13;;;;;;;17.20;8.40;;;8.40;99.90;;;;;;6125011;23;20410;-70
2023/02/16 00:14:27;;;;;;;15.40;8.37;;;8.30;99.90;;;;;;6124432;23;20497;-70
2023/02/16 00:16:56;;;;;;;16.50;9.13;;;8.20;99.90;;;;;;6124781;23;20411;-70
2023/02/16 00:19:26;;;;;;;13.53;6.50;;;8.20;99.90;;;;;;6124218;23;20424;-71
2023/02/16 00:21:55;;;;;;;14.43;8.70;;;8.30;99.90;;;;;;6124700;23;20476;-69
2023/02/16 00:24:23;;;;;;;14.00;8.20;;;8.30;99.90;;;;;;6125190;23;20457;-70
2023/02/16 00:26:50;;;;;;;19.97;9.80;;;8.30;99.90;;;;;;6124507;23;20403;-71
2023/02/16 00:29:21;;;;;;;13.93;7.70;;;8.20;99.90;;;;;;6124538;23;20413;-70
2023/02/16 00:31:48;;;;;;;14.97;9.07;;;8.20;99.90;;;;;;6123948;23;20469;-69
2023/02/16 00:34:26;;;;;;;15.97;7.83;;;8.30;99.90;;;;;;6124634;23;20473;-69
2023/02/16 00:36:53;;;;;;;15.40;8.23;;;8.40;99.90;;;;;;6124629;23;20368;-69
2023/02/16 00:39:21;;;;;;;11.73;8.13;;;8.50;99.90;;;;;;6124216;23;20397;-69
2023/02/16 00:41:52;;;;;;;22.90;11.80;;;8.40;99.90;;;;;;6123848;23;20445;-69
2023/02/16 00:44:23;;;;;;;12.70;8.43;;;8.30;99.90;;;;;;6124309;23;20388;-69
2023/02/16 00:46:50;;;;;;;13.97;7.73;;;8.30;99.90;;;;;;6124356;23;20385;-69
2023/02/16 00:49:19;;;;;;;17.67;7.77;;;8.30;99.90;;;;;;6124444;23;20453;-70
2023/02/16 00:51:50;;;;;;;13.83;8.00;;;8.30;99.90;;;;;;6074252;23;20517;-70
2023/02/16 00:54:17;;;;;;;13.40;6.47;;;8.40;99.90;;;;;;6125071;23;20457;-70
2023/02/16 00:56:44;;;;;;;15.37;9.90;;;8.30;99.90;;;;;;6125281;23;20382;-70
2023/02/16 00:59:16;;;;;;;13.93;6.90;;;8.30;99.90;;;;;;6123900;23;20382;-70
2023/02/16 01:01:43;;;;;;;16.30;9.10;;;8.20;99.90;;;;;;6124524;23;20480;-70
2023/02/16 01:04:17;;;;;;;16.43;7.20;;;8.20;99.90;;;;;;6124125;23;20382;-69
2023/02/16 01:12:16;;;;;;;20.07;8.70;;;8.00;99.90;;;;;;6074699;23;20771;-69
2023/02/16 01:14:45;;;;;;;17.00;9.30;;;7.90;99.90;;;;;;6124055;23;20785;-69
2023/02/16 01:17:12;;;;;;;15.70;7.90;;;7.90;99.90;;;;;;6124242;23;20502;-70
2023/02/16 01:19:39;;;;;;;18.53;9.33;;;7.80;99.90;;;;;;6123787;23;20498;-70
2023/02/16 01:22:06;;;;;;;12.43;9.00;;;7.80;99.90;;;;;;6123605;23;20769;-70
2023/02/16 01:24:34;;;;;;;18.30;9.90;;;7.70;99.90;;;;;;6124029;23;20489;-70
2023/02/16 01:27:02;;;;;;;13.70;7.77;;;7.70;99.90;;;;;;6124159;23;20481;-70
2023/02/16 01:29:29;;;;;;;17.10;8.57;;;7.80;99.90;;;;;;6121847;23;20731;-70
2023/02/16 01:31:55;;;;;;;15.97;8.70;;;7.70;99.90;;;;;;6123351;23;20530;-70
2023/02/16 01:34:24;;;;;;;12.00;8.80;;;7.70;99.90;;;;;;6124099;23;20471;-70
2023/02/16 01:36:54;;;;;;;20.27;8.73;;;7.60;99.90;;;;;;6124050;23;20411;-70
2023/02/16 01:39:21;;;;;;;15.27;7.73;;;7.60;99.90;;;;;;6124041;23;20407;-69
2023/02/16 01:42:11;;;;;;;12.30;7.80;;;7.50;99.90;;;;;;6123646;23;20444;-70
2023/02/16 01:44:46;;;;;;;13.77;9.37;;;7.50;99.90;;;;;;6123783;23;20437;-69
2023/02/16 01:47:28;;;;;;;16.50;8.53;;;7.30;99.90;;;;;;6123974;23;20419;-70
2023/02/16 01:49:55;;;;;;;17.90;11.27;;;7.20;99.90;;;;;;6124044;23;20368;-70
2023/02/16 01:52:28;;;;;;;12.67;8.23;;;7.30;99.90;;;;;;6123566;23;20452;-70
2023/02/16 01:54:59;;;;;;;14.87;7.23;;;7.40;99.90;;;;;;6123624;23;20437;-70
2023/02/16 01:57:37;;;;;;;14.20;7.40;;;7.30;99.90;;;;;;6123403;23;20378;-69
2023/02/16 02:00:11;;;;;;;15.20;6.60;;;7.10;99.90;;;;;;6124220;23;20388;-69
2023/02/16 02:02:41;;;;;;;17.27;8.33;;;6.90;99.90;;;;;;6124104;23;20480;-69
2023/02/16 02:05:35;;;;;;;11.90;7.83;;;6.70;99.90;;;;;;6123947;23;20386;-70
2023/02/16 02:08:22;;;;;;;12.77;7.20;;;6.70;99.90;;;;;;6124185;23;20368;-69
2023/02/16 02:11:05;;;;;;;20.80;9.13;;;6.60;99.90;;;;;;6123650;23;20906;-70
2023/02/16 02:13:40;;;;;;;12.67;8.50;;;6.50;99.90;;;;;;6123827;23;20946;-70
2023/02/16 02:16:08;;;;;;;12.77;7.43;;;6.40;99.90;;;;;;6125439;23;20398;-69
2023/02/16 02:18:35;;;;;;;21.17;8.10;;;6.40;99.90;;;;;;6125389;23;20878;-70
2023/02/16 02:24:21;;;;;;;15.47;6.67;;;6.20;99.90;;;;;;6125772;23;20385;-70
2023/02/16 02:27:20;;;;;;;15.57;7.00;;;6.20;99.90;;;;;;6125838;23;20942;-70
2023/02/16 02:30:27;;;;;;;13.40;6.70;;;6.20;99.90;;;;;;6060642;23;20419;-70
2023/02/16 02:33:07;;;;;;;8.37;5.70;;;6.10;99.90;;;;;;6125803;23;20484;-70
2023/02/16 02:35:48;;;;;;;18.73;6.93;;;6.00;99.90;;;;;;6125654;23;20418;-69
2023/02/16 02:38:22;;;;;;;17.27;7.83;;;5.90;99.90;;;;;;6125661;23;20787;-69
2023/02/16 02:40:58;;;;;;;19.17;7.97;;;5.90;99.90;;;;;;6125123;23;21005;-70
2023/02/16 02:43:31;;;;;;;13.10;7.33;;;5.80;99.90;;;;;;6124610;23;20405;-69
2023/02/16 02:46:04;;;;;;;11.27;6.67;;;5.70;99.90;;;;;;6123982;23;20370;-69
2023/02/16 02:48:31;;;;;;;9.53;5.77;;;5.70;99.90;;;;;;6124983;23;20475;-70
2023/02/16 03:00:39;;;;;;;18.63;8.10;;;5.70;99.90;;;;;;6124904;23;20437;-70
2023/02/16 03:02:14;;;;;;;13.23;6.80;;;5.60;99.90;;;;;;6125254;23;20765;-70
2023/02/16 03:07:17;;;;;;;15.20;8.90;;;5.60;99.90;;;;;;5997815;23;21133;-70
2023/02/16 03:09:44;;;;;;;11.43;7.40;;;5.50;99.90;;;;;;5999242;23;20396;-71
2023/02/16 03:15:01;;;;;;;13.20;6.90;;;5.40;99.90;;;;;;6002357;23;20408;-69
2023/02/16 03:31:32;;;;;;;11.77;7.17;;;5.40;99.90;;;;;;5979035;24;20375;-71
2023/02/16 03:33:59;;;;;;;8.07;5.17;;;5.40;99.90;;;;;;5987372;23;20413;-70
2023/02/16 03:36:29;;;;;;;15.63;7.23;;;5.40;99.90;;;;;;5975910;23;20407;-71
2023/02/16 03:38:57;;;;;;;16.73;6.87;;;5.40;99.90;;;;;;5978687;23;20442;-69
2023/02/16 03:41:24;;;;;;;15.30;9.40;;;5.30;99.90;;;;;;5980802;23;20387;-71
2023/02/16 03:43:52;;;;;;;12.27;7.43;;;5.40;99.90;;;;;;5970573;23;20940;-71
2023/02/16 03:46:19;;;;;;;18.63;9.67;;;5.30;99.90;;;;;;5972455;23;21023;-71
2023/02/16 03:48:49;;;;;;;16.77;7.97;;;5.40;99.90;;;;;;5972017;23;20899;-69
2023/02/16 03:51:16;;;;;;;22.87;9.17;;;5.50;99.90;;;;;;5971200;23;20461;-71
2023/02/16 03:53:43;;;;;;;16.57;8.47;;;5.60;99.90;;;;;;5972821;23;20481;-70
2023/02/16 03:56:10;;;;;;;20.83;7.57;;;5.70;99.90;;;;;;5973465;23;20446;-72
2023/02/16 03:58:37;;;;;;;14.47;8.13;;;5.70;99.90;;;;;;5972658;23;21055;-71
2023/02/16 04:01:04;;;;;;;20.93;7.20;;;5.80;99.90;;;;;;5976017;23;20422;-68
2023/02/16 04:03:31;;;;;;;26.13;8.57;;;5.80;99.90;;;;;;5982773;23;20386;-72
2023/02/16 04:06:03;;;;;;;19.30;6.83;;;5.80;99.90;;;;;;5972694;23;20422;-72
2023/02/16 04:08:30;;;;;;;16.80;8.67;;;6.00;99.90;;;;;;5967966;23;20454;-72
2023/02/16 04:10:59;;;;;;;12.10;6.97;;;5.80;99.90;;;;;;5974535;23;20421;-69
2023/02/16 04:13:33;;;;;;;15.57;10.53;;;5.70;99.90;;;;;;5968811;23;20609;-68
2023/02/16 04:16:00;;;;;;;15.57;7.03;;;5.70;99.90;;;;;;5975326;23;20421;-71
2023/02/16 04:18:27;;;;;;;18.73;8.27;;;5.70;99.90;;;;;;5971241;23;20446;-71
2023/02/16 04:20:56;;;;;;;14.97;7.90;;;5.70;99.90;;;;;;5973282;23;20761;-69
2023/02/16 04:23:25;;;;;;;12.70;7.10;;;5.80;99.90;;;;;;5964695;23;20439;-71
2023/02/16 04:25:52;;;;;;;11.90;8.27;;;5.80;99.90;;;;;;5968920;23;20435;-70
2023/02/16 04:28:19;;;;;;;12.10;5.80;;;5.60;99.90;;;;;;5972084;23;20415;-70
2023/02/16 04:30:47;;;;;;;9.37;6.33;;;5.60;99.90;;;;;;5973796;23;20831;-71
2023/02/16 04:33:14;;;;;;;15.40;6.67;;;5.60;99.90;;;;;;5973765;23;20418;-72
2023/02/16 04:35:41;;;;;;;15.23;7.60;;;5.60;99.90;;;;;;5970916;23;20585;-70
2023/02/16 04:38:08;;;;;;;15.77;8.53;;;5.50;99.90;;;;;;5987985;23;20390;-70
2023/02/16 04:40:36;;;;;;;14.47;7.70;;;5.50;99.90;;;;;;5975258;23;20443;-71
2023/02/16 04:43:03;;;;;;;22.73;5.87;;;5.40;99.90;;;;;;5973883;23;20391;-72
2023/02/16 04:45:31;;;;;;;23.27;9.33;;;5.50;99.90;;;;;;5973723;23;20482;-72
2023/02/16 04:47:58;;;;;;;12.47;5.97;;;5.40;99.90;;;;;;5975347;23;20426;-71
2023/02/16 04:50:25;;;;;;;13.33;7.37;;;5.40;99.90;;;;;;5974701;23;20415;-71
2023/02/16 04:52:52;;;;;;;18.47;8.17;;;5.40;99.90;;;;;;5975518;23;20535;-71
2023/02/16 04:55:19;;;;;;;11.57;8.10;;;5.30;99.90;;;;;;5977240;23;20550;-70
2023/02/16 04:57:49;;;;;;;18.27;8.87;;;5.30;99.90;;;;;;5977035;23;20477;-71
2023/02/16 05:00:17;;;;;;;11.63;7.07;;;5.30;99.90;;;;;;5976802;23;20430;-69
2023/02/16 05:02:44;;;;;;;16.40;8.83;;;5.30;99.90;;;;;;5973395;23;20415;-71
2023/02/16 05:05:11;;;;;;;17.73;7.80;;;5.20;99.90;;;;;;5972970;23;20386;-70
2023/02/16 05:07:38;;;;;;;13.97;7.57;;;5.10;99.90;;;;;;5971896;23;20447;-70
2023/02/16 05:10:06;;;;;;;20.90;7.60;;;5.20;99.90;;;;;;5974208;23;20485;-71
2023/02/16 05:15:19;;;;;;;11.77;6.30;;;5.10;99.90;;;;;;5964958;24;20442;-70
2023/02/16 05:17:46;;;;;;;12.87;9.40;;;5.10;99.90;;;;;;5970935;23;20474;-71
2023/02/16 05:20:14;;;;;;;15.00;7.80;;;5.10;99.90;;;;;;5972076;23;20459;-72
2023/02/16 05:22:42;;;;;;;16.33;7.93;;;5.10;99.90;;;;;;5980938;23;20402;-71
2023/02/16 05:25:13;;;;;;;13.83;7.67;;;5.00;99.90;;;;;;5978429;23;20415;-71
2023/02/16 05:27:46;;;;;;;14.17;7.10;;;5.00;99.90;;;;;;5944882;24;20412;-69
2023/02/16 05:30:14;;;;;;;14.10;6.77;;;5.00;99.90;;;;;;5973042;23;20404;-72
2023/02/16 05:32:42;;;;;;;13.13;7.00;;;5.00;99.90;;;;;;5975539;23;20439;-71
2023/02/16 05:35:09;;;;;;;13.77;8.03;;;5.00;99.90;;;;;;5980202;23;20489;-71
2023/02/16 05:37:36;;;;;;;16.53;7.93;;;5.00;99.90;;;;;;5974913;23;20478;-71
2023/02/16 05:40:05;;;;;;;10.63;6.73;;;5.00;99.90;;;;;;5974921;23;20421;-71
2023/02/16 05:42:32;;;;;;;14.83;9.30;;;5.00;99.90;;;;;;5977387;23;20402;-70
2023/02/16 05:44:59;;;;;;;15.07;7.03;;;5.10;99.90;;;;;;5976797;23;20383;-72
2023/02/16 05:47:26;;;;;;;16.47;7.20;;;5.00;99.90;;;;;;5976724;23;20424;-72
2023/02/16 05:49:54;;;;;;;14.43;7.70;;;5.00;99.90;;;;;;5979053;23;20415;-70
2023/02/16 05:52:21;;;;;;;25.73;7.80;;;4.90;99.90;;;;;;5978970;23;20493;-72
2023/02/16 05:54:51;;;;;;;31.47;8.37;;;5.00;99.90;;;;;;5978543;23;20527;-72
2023/02/16 05:57:18;;;;;;;16.13;6.93;;;5.10;99.90;;;;;;5980350;23;20410;-72
2023/02/16 05:59:45;;;;;;;12.43;7.80;;;5.10;99.90;;;;;;5978230;23;20394;-71
2023/02/16 06:02:12;;;;;;;17.33;7.40;;;5.20;99.90;;;;;;5978250;23;20909;-73
2023/02/16 06:04:39;;;;;;;19.20;8.77;;;5.20;99.90;;;;;;5980436;23;20495;-72
2023/02/16 06:07:08;;;;;;;19.07;9.10;;;5.20;99.90;;;;;;5977070;23;20979;-72
2023/02/16 06:09:35;;;;;;;20.10;7.47;;;5.20;99.90;;;;;;5930004;24;20381;-72
2023/02/16 06:12:02;;;;;;;18.13;10.43;;;5.10;99.90;;;;;;5978360;24;20490;-73
2023/02/16 06:14:29;;;;;;;16.33;7.30;;;5.20;99.90;;;;;;5979974;23;20485;-73
2023/02/16 06:16:57;;;;;;;13.87;8.43;;;5.10;99.90;;;;;;5982501;23;20458;-72
2023/02/16 06:19:24;;;;;;;13.70;8.20;;;5.10;99.90;;;;;;5987251;23;20398;-73
2023/02/16 06:21:51;;;;;;;21.37;9.33;;;5.20;99.90;;;;;;5978226;23;20495;-72
2023/02/16 06:24:20;;;;;;;14.07;7.43;;;5.20;99.90;;;;;;5979654;23;20415;-72
2023/02/16 06:26:49;;;;;;;17.47;9.47;;;5.20;99.90;;;;;;5976249;23;20936;-73
2023/02/16 06:29:16;;;;;;;19.07;9.50;;;5.30;99.90;;;;;;5979414;23;20419;-73
2023/02/16 06:31:43;;;;;;;17.00;9.00;;;5.40;99.90;;;;;;5988225;23;20422;-71
2023/02/16 06:34:10;;;;;;;14.90;7.90;;;5.40;99.90;;;;;;5987289;23;20658;-72
2023/02/16 06:36:37;;;;;;;16.80;8.97;;;5.40;99.90;;;;;;5979493;23;20546;-72
2023/02/16 06:39:04;;;;;;;15.97;8.77;;;5.60;99.90;;;;;;5979859;23;20792;-73
2023/02/16 06:41:36;;;;;;;22.70;9.53;;;5.70;99.90;;;;;;5980849;23;20469;-72
2023/02/16 06:44:05;;;;;;;17.83;7.57;;;5.80;99.90;;;;;;5989062;23;20386;-72
2023/02/16 06:46:33;;;;;;;9.90;6.70;;;6.00;99.90;;;;;;5978372;23;20515;-71
2023/02/16 06:49:00;;;;;;;19.37;9.10;;;6.30;99.90;;;;;;5978606;23;20396;-72
2023/02/16 06:51:27;;;;;;;19.53;9.93;;;6.40;99.90;;;;;;5980022;23;20458;-73
2023/02/16 06:53:54;;;;;;;16.57;8.27;;;6.70;99.90;;;;;;5982409;23;20415;-71
2023/02/16 06:56:22;;;;;;;20.53;7.57;;;6.80;99.90;;;;;;5981486;23;20440;-73
2023/02/16 06:58:50;;;;;;;14.50;7.60;;;6.80;99.90;;;;;;5980120;23;20420;-73
2023/02/16 07:01:21;;;;;;;18.03;11.20;;;6.90;99.90;;;;;;5979080;23;20404;-73
2023/02/16 07:03:50;;;;;;;16.23;8.93;;;7.00;99.90;;;;;;5979830;23;20400;-71
2023/02/16 07:06:17;;;;;;;13.63;7.63;;;6.90;99.90;;;;;;5981640;23;20559;-72
2023/02/16 07:08:44;;;;;;;19.03;8.83;;;7.00;99.90;;;;;;5981345;23;20819;-73
2023/02/16 07:11:15;;;;;;;20.07;7.70;;;7.10;99.90;;;;;;5980423;23;20419;-73
2023/02/16 07:13:43;;;;;;;16.73;7.87;;;7.40;99.90;;;;;;5979329;23;20678;-72
2023/02/16 07:16:11;;;;;;;18.20;9.37;;;7.60;99.90;;;;;;5979054;23;20490;-73
2023/02/16 07:18:38;;;;;;;14.40;9.70;;;7.70;99.90;;;;;;5976560;23;20470;-73
2023/02/16 07:21:06;;;;;;;22.07;9.40;;;7.70;99.90;;;;;;5981321;23;20462;-73
2023/02/16 07:23:33;;;;;;;11.20;7.80;;;7.80;99.90;;;;;;5980196;23;20390;-72
2023/02/16 07:26:00;;;;;;;18.10;7.13;;;7.80;99.90;;;;;;5978726;23;20515;-72
2023/02/16 07:28:28;;;;;;;15.90;9.37;;;7.70;99.90;;;;;;5984070;23;20793;-73
2023/02/16 07:30:54;;;;;;;10.03;5.77;;;7.60;99.90;;;;;;5986576;23;20419;-73
2023/02/16 07:33:23;;;;;;;17.60;9.83;;;7.70;99.90;;;;;;5980330;23;20474;-72
2023/02/16 07:35:50;;;;;;;15.57;8.53;;;7.70;99.90;;;;;;5979535;23;20467;-72
2023/02/16 07:38:17;;;;;;;14.50;7.80;;;7.90;99.90;;;;;;5931569;24;20506;-73
2023/02/16 07:40:44;;;;;;;19.27;8.83;;;7.80;99.90;;;;;;5976860;23;20461;-72
2023/02/16 07:43:11;;;;;;;19.77;8.60;;;7.70;99.90;;;;;;5979675;23;20487;-71
2023/02/16 07:45:39;;;;;;;14.40;7.47;;;7.80;99.90;;;;;;5978412;23;20431;-73
2023/02/16 07:48:06;;;;;;;17.97;10.13;;;7.90;99.90;;;;;;5980714;23;20506;-73
2023/02/16 07:50:36;;;;;;;14.10;8.50;;;7.90;99.90;;;;;;5979256;23;20425;-73
2023/02/16 07:53:03;;;;;;;10.03;7.00;;;8.00;99.90;;;;;;5978825;23;20525;-73
2023/02/16 07:55:30;;;;;;;19.70;9.07;;;8.10;99.90;;;;;;5980723;23;20824;-72
2023/02/16 07:57:58;;;;;;;17.50;10.83;;;8.00;99.90;;;;;;5977161;23;20960;-72
2023/02/16 08:00:25;;;;;;;18.60;7.97;;;7.90;99.90;;;;;;5979359;23;20390;-73
2023/02/16 08:02:52;;;;;;;14.60;7.83;;;8.00;99.90;;;;;;5986178;23;20426;-72
2023/02/16 08:05:19;;;;;;;15.07;9.17;;;8.00;99.90;;;;;;5979115;23;20510;-74
2023/02/16 08:07:47;;;;;;;14.10;9.90;;;8.10;99.90;;;;;;5979564;23;20489;-72
2023/02/16 08:10:15;;;;;;;16.20;8.30;;;8.20;99.90;;;;;;5976711;23;20502;-73
2023/02/16 08:12:42;;;;;;;14.83;7.57;;;8.40;99.90;;;;;;5979111;23;20919;-72
2023/02/16 08:15:10;;;;;;;20.70;9.40;;;8.70;99.90;;;;;;5981534;23;20465;-72
2023/02/16 08:17:37;;;;;;;21.40;8.57;;;8.70;99.90;;;;;;5977191;23;20386;-72
2023/02/16 08:20:09;;;;;;;19.33;7.93;;;8.90;99.90;;;;;;5929079;24;20419;-72
2023/02/16 08:22:37;;;;;;;13.60;7.10;;;8.90;99.90;;;;;;5974584;23;20466;-72
2023/02/16 08:25:05;;;;;;;20.80;8.83;;;9.00;99.90;;;;;;5980674;23;20400;-73
2023/02/16 08:27:32;;;;;;;16.27;9.10;;;9.00;99.90;;;;;;5993984;23;20688;-72
2023/02/16 08:29:59;;;;;;;21.17;8.63;;;9.20;99.90;;;;;;5977625;23;20477;-72
2023/02/16 08:32:26;;;;;;;19.73;9.30;;;9.20;99.90;;;;;;5978493;23;20419;-73
2023/02/16 08:34:53;;;;;;;11.47;8.57;;;9.40;99.90;;;;;;5978383;23;20396;-72
2023/02/16 08:37:23;;;;;;;11.33;7.03;;;9.40;99.90;;;;;;5977832;23;20489;-72
2023/02/16 08:39:50;;;;;;;16.03;8.63;;;9.20;99.90;;;;;;5976114;23;20412;-72
2023/02/16 08:42:19;;;;;;;11.53;7.93;;;9.20;99.90;;;;;;5982727;23;20789;-72
2023/02/16 08:44:46;;;;;;;20.57;9.27;;;9.30;99.90;;;;;;5980311;23;20973;-72
2023/02/16 08:47:15;;;;;;;13.30;6.67;;;9.50;99.90;;;;;;5977586;23;20478;-71
2023/02/16 08:49:43;;;;;;;22.73;9.23;;;9.60;99.90;;;;;;5930462;24;20391;-73
2023/02/16 08:52:11;;;;;;;15.90;8.67;;;9.70;99.90;;;;;;5977567;23;20390;-71
2023/02/16 08:54:39;;;;;;;14.00;7.40;;;9.90;99.90;;;;;;5979043;23;20484;-73
2023/02/16 08:57:06;;;;;;;15.20;9.00;;;10.00;99.90;;;;;;5978230;23;20426;-71
2023/02/16 08:59:34;;;;;;;16.40;9.23;;;10.10;99.90;;;;;;5979088;23;20798;-71
2023/02/16 09:02:01;;;;;;;16.60;10.20;;;10.00;99.90;;;;;;5979027;23;20394;-72
2023/02/16 09:04:28;;;;;;;13.10;9.10;;;10.00;99.90;;;;;;5979595;23;20438;-71
2023/02/16 09:06:56;;;;;;;19.30;11.50;;;10.00;99.90;;;;;;5976901;23;20410;-71
2023/02/16 09:09:25;;;;;;;14.90;7.40;;;10.20;99.90;;;;;;5979914;23;20420;-71
2023/02/16 09:11:52;;;;;;;12.83;7.33;;;10.40;99.90;;;;;;5977413;23;20452;-71
2023/02/16 09:14:20;;;;;;;20.70;9.27;;;10.60;99.90;;;;;;5978896;23;20469;-72
2023/02/16 09:16:48;;;;;;;14.67;9.03;;;10.70;99.90;;;;;;5980751;23;20455;-71
2023/02/16 09:19:17;;;;;;;17.77;10.60;;;10.50;99.90;;;;;;5978715;23;20423;-71
2023/02/16 09:21:45;;;;;;;13.17;9.30;;;10.50;99.90;;;;;;5986770;23;20393;-70
2023/02/16 09:24:12;;;;;;;20.80;8.53;;;10.60;99.90;;;;;;5996017;23;20390;-72
2023/02/16 09:26:41;;;;;;;14.00;10.23;;;10.70;99.90;;;;;;5977818;23;20980;-71
2023/02/16 09:29:09;;;;;;;19.00;7.73;;;10.70;99.90;;;;;;5975807;23;20443;-71
2023/02/16 09:31:38;;;;;;;14.10;8.20;;;10.80;99.90;;;;;;5978523;23;20418;-72
2023/02/16 09:34:09;;;;;;;13.20;7.33;;;11.00;99.90;;;;;;5983564;23;20390;-71
2023/02/16 09:36:38;;;;;;;25.67;9.17;;;11.10;99.90;;;;;;5976021;23;20455;-72
2023/02/16 09:39:06;;;;;;;17.37;9.40;;;11.20;99.90;;;;;;5975954;23;20446;-72
2023/02/16 09:41:44;;;;;;;12.07;8.70;;;11.20;99.90;;;;;;5978757;23;20969;-72
2023/02/16 09:44:20;;;;;;;14.17;9.23;;;11.40;99.90;;;;;;5977817;23;20423;-71
2023/02/16 09:46:49;;;;;;;14.80;9.47;;;11.80;99.90;;;;;;5974949;23;20467;-71
2023/02/16 09:49:31;;;;;;;15.03;9.07;;;11.80;99.90;;;;;;5977208;23;20901;-72
2023/02/16 09:52:03;;;;;;;14.17;8.43;;;12.00;99.90;;;;;;5979388;23;20399;-71
2023/02/16 09:54:39;;;;;;;18.60;8.30;;;12.30;99.90;;;;;;5977012;23;20623;-71
2023/02/16 09:57:18;;;;;;;13.47;7.40;;;12.40;99.90;;;;;;5979678;23;20527;-72
2023/02/16 09:59:52;;;;;;;15.90;8.50;;;12.50;99.90;;;;;;5980161;23;20910;-72
2023/02/16 10:02:40;;;;;;;16.83;8.30;;;12.40;99.90;;;;;;5979865;23;20403;-71
2023/02/16 10:05:21;;;;;;;16.03;7.30;;;12.50;99.90;;;;;;5977277;23;20374;-72
2023/02/16 10:07:57;;;;;;;12.10;7.57;;;12.50;99.90;;;;;;5979551;23;20429;-71
2023/02/16 10:10:41;;;;;;;19.20;8.57;;;12.50;99.90;;;;;;5976302;23;20395;-73
2023/02/16 10:13:16;;;;;;;16.40;7.23;;;12.50;99.90;;;;;;5978123;23;20398;-72
2023/02/16 10:15:48;;;;;;;9.07;5.40;;;12.20;99.90;;;;;;5974677;23;20533;-72
2023/02/16 10:18:23;;;;;;;5.40;3.83;;;12.00;99.90;;;;;;5980156;23;20382;-72
2023/02/16 10:20:55;;;;;;;11.40;7.07;;;11.80;99.90;;;;;;5992942;23;20380;-72
2023/02/16 10:23:44;;;;;;;20.57;8.07;;;11.50;99.90;;;;;;5979748;23;20427;-71
2023/02/16 10:26:18;;;;;;;11.73;6.00;;;11.40;99.90;;;;;;5978812;23;20445;-72
2023/02/16 10:28:49;;;;;;;13.57;8.10;;;11.40;99.90;;;;;;5978297;23;20409;-71
2023/02/16 10:31:23;;;;;;;10.77;5.33;;;11.50;99.90;;;;;;5978117;23;20399;-71
2023/02/16 10:34:08;;;;;;;11.53;6.90;;;11.50;99.90;;;;;;5978365;23;20864;-71
2023/02/16 10:36:52;;;;;;;14.57;6.30;;;11.30;99.90;;;;;;5979609;23;20987;-71
2023/02/16 10:39:26;;;;;;;10.97;7.03;;;11.10;99.90;;;;;;5982293;23;20429;-71
2023/02/16 10:42:00;;;;;;;17.90;8.57;;;11.20;99.90;;;;;;5990354;23;20455;-71
2023/02/16 10:44:35;;;;;;;9.07;5.23;;;11.10;99.90;;;;;;5981007;23;20381;-71
2023/02/16 10:47:05;;;;;;;12.00;7.70;;;11.10;99.90;;;;;;5981485;23;20405;-69
2023/02/16 10:49:36;;;;;;;18.40;7.73;;;11.20;99.90;;;;;;5979049;23;20918;-71
2023/02/16 10:52:09;;;;;;;12.80;6.73;;;11.10;99.90;;;;;;5981362;23;20427;-71
2023/02/16 10:54:36;;;;;;;13.03;6.97;;;11.10;99.90;;;;;;5984372;23;20408;-72
2023/02/16 10:57:10;;;;;;;11.77;6.30;;;11.10;99.90;;;;;;5980604;23;21000;-72
2023/02/16 10:59:39;;;;;;;10.27;6.13;;;11.10;99.90;;;;;;5980683;23;20428;-72
2023/02/16 11:02:19;;;;;;;9.93;6.27;;;11.00;99.90;;;;;;5979640;23;20422;-72
2023/02/16 11:04:48;;;;;;;9.60;5.77;;;10.90;99.90;;;;;;5980247;23;20434;-72
2023/02/16 11:07:22;;;;;;;9.00;6.03;;;10.90;99.90;;;;;;5979850;23;20769;-71
2023/02/16 11:09:51;;;;;;;13.13;6.37;;;10.90;99.90;;;;;;5979880;23;20399;-71
2023/02/16 11:12:26;;;;;;;8.50;4.40;;;11.00;99.90;;;;;;5979016;23;20400;-72
2023/02/16 11:14:57;;;;;;;14.40;8.50;;;11.20;99.90;;;;;;5979335;23;20413;-71
2023/02/16 11:17:31;;;;;;;12.57;5.80;;;11.40;99.90;;;;;;5989704;23;20579;-70
2023/02/16 11:20:01;;;;;;;15.60;9.70;;;11.40;99.90;;;;;;5984874;23;20402;-72
2023/02/16 11:22:36;;;;;;;8.20;7.07;;;11.40;99.90;;;;;;5976247;23;20730;-70
2023/02/16 11:25:25;;;;;;;18.40;9.57;;;11.50;99.90;;;;;;5977772;23;20403;-73
2023/02/16 11:27:55;;;;;;;8.73;7.00;;;11.70;99.90;;;;;;5979266;23;20399;-72
2023/02/16 11:30:32;;;;;;;12.73;6.30;;;11.80;99.90;;;;;;5980283;23;20822;-72
2023/02/16 11:33:03;;;;;;;8.07;6.00;;;11.90;99.90;;;;;;5978302;23;20400;-71
2023/02/16 11:35:32;;;;;;;12.90;7.47;;;12.20;99.90;;;;;;5977441;23;20453;-71
2023/02/16 11:38:05;;;;;;;13.57;8.30;;;12.50;99.90;;;;;;5979500;23;20439;-73
2023/02/16 11:40:34;;;;;;;17.37;8.87;;;12.80;99.90;;;;;;5978947;23;20454;-71
2023/02/16 11:43:02;;;;;;;17.00;10.07;;;13.30;99.90;;;;;;5979813;23;20436;-72
2023/02/16 11:45:31;;;;;;;14.90;8.93;;;13.30;99.90;;;;;;5978518;23;20510;-72
2023/02/16 11:48:02;;;;;;;9.27;6.23;;;13.40;99.90;;;;;;5979821;23;20416;-71
2023/02/16 11:50:30;;;;;;;7.67;5.03;;;13.30;99.90;;;;;;5982614;23;20760;-71
2023/02/16 11:53:14;;;;;;;14.33;9.73;;;13.00;99.90;;;;;;5984870;23;21244;-72
2023/02/16 11:55:43;;;;;;;23.90;11.07;;;12.80;99.90;;;;;;5983305;23;20439;-71
2023/02/16 11:58:17;;;;;;;20.60;9.93;;;12.90;99.90;;;;;;5979412;23;20451;-72
2023/02/16 12:00:57;;;;;;;15.43;10.20;;;12.70;99.90;;;;;;5987793;23;20396;-72
2023/02/16 12:03:50;;;;;;;13.33;7.17;;;12.60;99.90;;;;;;5981047;23;20491;-72
2023/02/16 12:06:32;;;;;;;20.03;10.17;;;12.20;99.90;;;;;;5975628;23;20428;-72
2023/02/16 12:09:19;;;;;;;20.37;10.70;;;12.00;99.90;;;;;;5977717;23;20400;-71
2023/02/16 12:11:57;;;;;;;9.73;6.70;;;12.00;99.90;;;;;;5984378;23;20456;-71
2023/02/16 12:14:38;;;;;;;15.37;7.77;;;11.80;99.90;;;;;;5996387;23;20367;-72
2023/02/16 12:17:18;;;;;;;22.13;11.17;;;11.60;99.90;;;;;;5985986;23;20422;-71
2023/02/16 12:19:47;;;;;;;12.70;8.33;;;11.50;99.90;;;;;;5978599;24;20436;-72
2023/02/16 12:22:26;;;;;;;20.90;10.40;;;11.50;99.90;;;;;;5977347;23;20481;-71
2023/02/16 12:25:06;;;;;;;17.67;9.70;;;11.50;99.90;;;;;;5978368;23;20430;-72
2023/02/16 12:27:42;;;;;;;20.27;10.63;;;11.50;99.90;;;;;;5979142;23;20370;-72
2023/02/16 12:30:25;;;;;;;22.90;12.70;;;11.40;99.90;;;;;;5979380;23;20431;-72
2023/02/16 12:33:06;;;;;;;20.73;11.20;;;11.60;99.90;;;;;;5979602;23;20436;-72
2023/02/16 12:35:58;;;;;;;39.03;14.53;;;11.60;99.90;;;;;;5976271;23;20442;-72
2023/02/16 12:38:37;;;;;;;10.80;7.77;;;11.60;99.90;;;;;;5976527;23;20393;-71
2023/02/16 12:41:17;;;;;;;12.80;8.20;;;11.40;99.90;;;;;;5982370;23;20422;-71
2023/02/16 12:43:47;;;;;;;22.30;10.43;;;11.30;99.90;;;;;;5979159;23;20400;-72
2023/02/16 12:46:18;;;;;;;15.50;11.20;;;11.40;99.90;;;;;;5979153;23;20781;-71
2023/02/16 12:48:50;;;;;;;19.77;12.93;;;11.40;99.90;;;;;;5977096;23;20456;-71
2023/02/16 12:51:21;;;;;;;25.40;13.30;;;11.30;99.90;;;;;;5976780;24;20436;-72
2023/02/16 12:53:55;;;;;;;27.90;11.87;;;11.50;99.90;;;;;;5978655;23;20396;-72
2023/02/16 12:56:28;;;;;;;27.10;15.13;;;11.50;99.90;;;;;;5975736;23;20436;-72
2023/02/16 12:59:05;;;;;;;12.97;7.77;;;11.60;99.90;;;;;;5979122;23;20426;-72
2023/02/16 13:01:35;;;;;;;16.40;8.97;;;11.70;99.90;;;;;;5978409;23;20957;-72
2023/02/16 13:04:15;;;;;;;18.97;11.20;;;11.60;99.90;;;;;;5979484;23;20714;-71
2023/02/16 13:06:50;;;;;;;23.37;13.20;;;11.60;99.90;;;;;;5953518;24;20826;-73
2023/02/16 13:09:27;;;;;;;22.60;11.00;;;11.70;99.90;;;;;;5979795;23;20363;-72
2023/02/16 13:11:58;;;;;;;14.00;7.87;;;11.90;99.90;;;;;;5983610;23;20443;-71
2023/02/16 13:14:30;;;;;;;18.40;9.70;;;12.00;99.90;;;;;;5989326;23;20370;-72
2023/02/16 13:17:00;;;;;;;12.20;8.53;;;11.90;99.90;;;;;;5980055;23;20539;-71
2023/02/16 13:19:28;;;;;;;16.67;8.97;;;11.80;99.90;;;;;;5988043;23;20721;-72
2023/02/16 13:22:32;;;;;;;11.20;8.03;;;11.80;99.90;;;;;;5980333;23;20390;-71
2023/02/16 13:25:31;;;;;;;14.57;8.83;;;11.80;99.90;;;;;;5958344;24;20423;-71
2023/02/16 13:28:15;;;;;;;7.20;4.80;;;11.90;99.90;;;;;;5982426;23;20389;-72
2023/02/16 13:31:22;;;;;;;21.90;9.87;;;11.70;99.90;;;;;;5985132;23;20470;-72
2023/02/16 13:34:17;;;;;;;15.17;8.90;;;11.80;99.90;;;;;;5978416;23;20467;-71
2023/02/16 13:37:00;;;;;;;25.63;10.83;;;11.60;99.90;;;;;;5955439;23;20490;-72
2023/02/16 13:39:54;;;;;;;18.87;11.97;;;11.60;99.90;;;;;;5976805;23;20439;-71
2023/02/16 13:42:53;;;;;;;9.20;7.50;;;11.60;99.90;;;;;;5981536;23;20396;-72
2023/02/16 13:45:25;;;;;;;16.47;8.70;;;11.40;99.90;;;;;;5958629;24;20467;-71
2023/02/16 13:47:54;;;;;;;13.83;8.20;;;11.30;99.90;;;;;;5978245;23;20424;-72